sensor_id;sensor_type;location;lat;lon;timestamp;temperature;humidity
21271;DHT22;10795;50.796;3.860;2022-10-04T00:01:52;10.50;99.90
21271;DHT22;10795;50.796;3.860;2022-10-04T00:06:56;10.50;99.90
21271;DHT22;10795;50.796;3.860;2022-10-04T00:09:23;10.50;99.90
21271;DHT22;10795;50.796;3.860;2022-10-04T00:11:51;10.30;99.90
21271;DHT22;10795;50.796;3.860;2022-10-04T00:14:23;10.30;99.90
21271;DHT22;10795;50.796;3.860;2022-10-04T00:16:50;10.20;99.90
21271;DHT22;10795;50.796;3.860;2022-10-04T00:22:30;10.10;99.90
21271;DHT22;10795;50.796;3.860;2022-10-04T00:24:35;10.00;99.90
21271;DHT22;10795;50.796;3.860;2022-10-04T00:27:20;10.00;99.90
21271;DHT22;10795;50.796;3.860;2022-10-04T00:34:53;9.90;99.90
21271;DHT22;10795;50.796;3.860;2022-10-04T00:37:19;9.90;99.90
21271;DHT22;10795;50.796;3.860;2022-10-04T00:39:55;9.80;99.90
21271;DHT22;10795;50.796;3.860;2022-10-04T00:42:26;10.00;99.90
21271;DHT22;10795;50.796;3.860;2022-10-04T00:44:58;10.00;99.90
21271;DHT22;10795;50.796;3.860;2022-10-04T00:47:28;9.90;99.90
21271;DHT22;10795;50.796;3.860;2022-10-04T00:50:18;9.80;99.90
21271;DHT22;10795;50.796;3.860;2022-10-04T00:52:43;9.90;99.90
21271;DHT22;10795;50.796;3.860;2022-10-04T00:55:16;10.10;99.90
21271;DHT22;10795;50.796;3.860;2022-10-04T00:57:44;10.10;99.90
21271;DHT22;10795;50.796;3.860;2022-10-04T01:00:16;10.10;99.90
21271;DHT22;10795;50.796;3.860;2022-10-04T01:05:30;10.00;99.90
21271;DHT22;10795;50.796;3.860;2022-10-04T01:08:08;9.90;99.90
21271;DHT22;10795;50.796;3.860;2022-10-04T01:10:48;10.00;99.90
21271;DHT22;10795;50.796;3.860;2022-10-04T01:13:15;10.00;99.90
21271;DHT22;10795;50.796;3.860;2022-10-04T01:15:52;10.00;99.90
21271;DHT22;10795;50.796;3.860;2022-10-04T01:21:27;10.00;99.90
21271;DHT22;10795;50.796;3.860;2022-10-04T01:31:23;9.80;99.90
21271;DHT22;10795;50.796;3.860;2022-10-04T01:33:50;9.80;99.90
21271;DHT22;10795;50.796;3.860;2022-10-04T01:36:16;9.70;99.90
21271;DHT22;10795;50.796;3.860;2022-10-04T01:38:42;9.60;99.90
21271;DHT22;10795;50.796;3.860;2022-10-04T01:41:07;9.50;99.90
21271;DHT22;10795;50.796;3.860;2022-10-04T01:43:35;9.40;99.90
21271;DHT22;10795;50.796;3.860;2022-10-04T01:46:04;9.30;99.90
21271;DHT22;10795;50.796;3.860;2022-10-04T01:48:31;9.40;99.90
21271;DHT22;10795;50.796;3.860;2022-10-04T01:51:01;9.50;99.90
21271;DHT22;10795;50.796;3.860;2022-10-04T01:53:39;9.50;99.90
21271;DHT22;10795;50.796;3.860;2022-10-04T01:56:13;9.60;99.90
21271;DHT22;10795;50.796;3.860;2022-10-04T01:58:42;9.50;99.90
21271;DHT22;10795;50.796;3.860;2022-10-04T02:01:10;9.50;99.90
21271;DHT22;10795;50.796;3.860;2022-10-04T02:03:40;9.50;99.90
21271;DHT22;10795;50.796;3.860;2022-10-04T02:06:07;9.50;99.90
21271;DHT22;10795;50.796;3.860;2022-10-04T02:08:34;9.30;99.90
21271;DHT22;10795;50.796;3.860;2022-10-04T02:11:02;9.20;99.90
21271;DHT22;10795;50.796;3.860;2022-10-04T02:13:32;9.20;99.90
21271;DHT22;10795;50.796;3.860;2022-10-04T02:15:59;9.30;99.90
21271;DHT22;10795;50.796;3.860;2022-10-04T02:18:27;9.40;99.90
21271;DHT22;10795;50.796;3.860;2022-10-04T02:20:54;9.30;99.90
21271;DHT22;10795;50.796;3.860;2022-10-04T02:23:20;9.10;99.90
21271;DHT22;10795;50.796;3.860;2022-10-04T02:25:47;9.00;99.90
21271;DHT22;10795;50.796;3.860;2022-10-04T02:28:13;8.90;99.90
21271;DHT22;10795;50.796;3.860;2022-10-04T02:30:41;9.20;99.90
21271;DHT22;10795;50.796;3.860;2022-10-04T02:33:07;9.20;99.90
21271;DHT22;10795;50.796;3.860;2022-10-04T02:35:34;9.10;99.90
21271;DHT22;10795;50.796;3.860;2022-10-04T02:40:39;9.20;99.90
21271;DHT22;10795;50.796;3.860;2022-10-04T02:43:13;9.40;99.90
21271;DHT22;10795;50.796;3.860;2022-10-04T02:45:49;9.40;99.90
21271;DHT22;10795;50.796;3.860;2022-10-04T02:48:24;9.40;99.90
21271;DHT22;10795;50.796;3.860;2022-10-04T02:50:52;9.30;99.90
21271;DHT22;10795;50.796;3.860;2022-10-04T02:53:30;9.10;99.90
21271;DHT22;10795;50.796;3.860;2022-10-04T02:55:57;9.00;99.90
21271;DHT22;10795;50.796;3.860;2022-10-04T02:58:24;9.10;99.90
21271;DHT22;10795;50.796;3.860;2022-10-04T03:00:51;9.10;99.90
21271;DHT22;10795;50.796;3.860;2022-10-04T03:03:27;9.10;99.90
21271;DHT22;10795;50.796;3.860;2022-10-04T03:06:00;9.10;99.90
21271;DHT22;10795;50.796;3.860;2022-10-04T03:08:27;9.00;99.90
21271;DHT22;10795;50.796;3.860;2022-10-04T03:10:53;9.00;99.90
21271;DHT22;10795;50.796;3.860;2022-10-04T03:13:19;9.00;99.90
21271;DHT22;10795;50.796;3.860;2022-10-04T03:15:46;8.80;99.90
21271;DHT22;10795;50.796;3.860;2022-10-04T03:18:13;8.90;99.90
21271;DHT22;10795;50.796;3.860;2022-10-04T03:20:39;8.80;99.90
21271;DHT22;10795;50.796;3.860;2022-10-04T03:23:05;8.90;99.90
21271;DHT22;10795;50.796;3.860;2022-10-04T03:25:51;8.80;99.90
21271;DHT22;10795;50.796;3.860;2022-10-04T03:28:17;8.50;99.90
21271;DHT22;10795;50.796;3.860;2022-10-04T03:30:44;8.60;99.90
21271;DHT22;10795;50.796;3.860;2022-10-04T03:33:14;8.80;99.90
21271;DHT22;10795;50.796;3.860;2022-10-04T03:35:41;8.70;99.90
21271;DHT22;10795;50.796;3.860;2022-10-04T03:38:07;8.70;99.90
21271;DHT22;10795;50.796;3.860;2022-10-04T03:40:33;8.70;99.90
21271;DHT22;10795;50.796;3.860;2022-10-04T03:42:59;8.80;99.90
21271;DHT22;10795;50.796;3.860;2022-10-04T03:45:26;8.50;99.90
21271;DHT22;10795;50.796;3.860;2022-10-04T03:47:52;8.70;99.90
21271;DHT22;10795;50.796;3.860;2022-10-04T03:52:48;8.60;99.90
21271;DHT22;10795;50.796;3.860;2022-10-04T03:55:15;8.70;99.90
21271;DHT22;10795;50.796;3.860;2022-10-04T03:57:41;8.60;99.90
21271;DHT22;10795;50.796;3.860;2022-10-04T04:00:07;8.50;99.90
21271;DHT22;10795;50.796;3.860;2022-10-04T04:07:59;8.50;99.90
21271;DHT22;10795;50.796;3.860;2022-10-04T04:10:31;8.30;99.90
21271;DHT22;10795;50.796;3.860;2022-10-04T04:13:02;8.50;99.90
21271;DHT22;10795;50.796;3.860;2022-10-04T04:15:31;8.50;99.90
21271;DHT22;10795;50.796;3.860;2022-10-04T04:18:02;8.70;99.90
21271;DHT22;10795;50.796;3.860;2022-10-04T04:20:30;8.70;99.90
21271;DHT22;10795;50.796;3.860;2022-10-04T04:23:10;8.60;99.90
21271;DHT22;10795;50.796;3.860;2022-10-04T04:25:50;8.50;99.90
21271;DHT22;10795;50.796;3.860;2022-10-04T04:30:49;8.60;99.90
21271;DHT22;10795;50.796;3.860;2022-10-04T04:33:24;8.30;99.90
21271;DHT22;10795;50.796;3.860;2022-10-04T04:35:54;8.40;99.90
21271;DHT22;10795;50.796;3.860;2022-10-04T04:38:22;8.40;99.90
21271;DHT22;10795;50.796;3.860;2022-10-04T04:40:49;8.30;99.90
21271;DHT22;10795;50.796;3.860;2022-10-04T04:43:16;8.40;99.90
21271;DHT22;10795;50.796;3.860;2022-10-04T04:45:44;8.40;99.90
21271;DHT22;10795;50.796;3.860;2022-10-04T04:48:16;8.30;99.90
21271;DHT22;10795;50.796;3.860;2022-10-04T04:50:53;8.30;99.90
21271;DHT22;10795;50.796;3.860;2022-10-04T04:53:20;8.40;99.90
21271;DHT22;10795;50.796;3.860;2022-10-04T04:55:48;8.40;99.90
21271;DHT22;10795;50.796;3.860;2022-10-04T04:58:21;8.20;99.90
21271;DHT22;10795;50.796;3.860;2022-10-04T05:00:53;8.20;99.90
21271;DHT22;10795;50.796;3.860;2022-10-04T05:03:19;8.30;99.90
21271;DHT22;10795;50.796;3.860;2022-10-04T05:05:46;8.20;99.90
21271;DHT22;10795;50.796;3.860;2022-10-04T05:08:18;8.20;99.90
21271;DHT22;10795;50.796;3.860;2022-10-04T05:13:09;8.10;99.90
21271;DHT22;10795;50.796;3.860;2022-10-04T05:15:39;8.00;99.90
21271;DHT22;10795;50.796;3.860;2022-10-04T05:18:13;8.00;99.90
21271;DHT22;10795;50.796;3.860;2022-10-04T05:20:47;8.00;99.90
21271;DHT22;10795;50.796;3.860;2022-10-04T05:23:14;8.10;99.90
21271;DHT22;10795;50.796;3.860;2022-10-04T05:25:40;8.10;99.90
21271;DHT22;10795;50.796;3.860;2022-10-04T05:28:08;8.00;99.90
21271;DHT22;10795;50.796;3.860;2022-10-04T05:30:41;8.00;99.90
21271;DHT22;10795;50.796;3.860;2022-10-04T05:33:12;8.20;99.90
21271;DHT22;10795;50.796;3.860;2022-10-04T05:40:58;7.90;99.90
21271;DHT22;10795;50.796;3.860;2022-10-04T05:48:34;8.10;99.90
21271;DHT22;10795;50.796;3.860;2022-10-04T05:51:00;8.00;99.90
21271;DHT22;10795;50.796;3.860;2022-10-04T05:53:30;8.10;99.90
21271;DHT22;10795;50.796;3.860;2022-10-04T06:01:23;7.90;99.90
21271;DHT22;10795;50.796;3.860;2022-10-04T06:06:24;7.90;99.90
21271;DHT22;10795;50.796;3.860;2022-10-04T06:11:39;7.90;99.90
21271;DHT22;10795;50.796;3.860;2022-10-04T06:14:25;7.90;99.90
21271;DHT22;10795;50.796;3.860;2022-10-04T06:24:20;8.10;99.90
21271;DHT22;10795;50.796;3.860;2022-10-04T06:26:51;8.00;99.90
21271;DHT22;10795;50.796;3.860;2022-10-04T06:29:22;8.10;99.90
21271;DHT22;10795;50.796;3.860;2022-10-04T06:31:58;8.20;99.90
21271;DHT22;10795;50.796;3.860;2022-10-04T06:39:44;7.80;99.90
21271;DHT22;10795;50.796;3.860;2022-10-04T06:42:20;8.00;99.90
21271;DHT22;10795;50.796;3.860;2022-10-04T06:52:49;8.20;99.90
21271;DHT22;10795;50.796;3.860;2022-10-04T06:58:17;8.40;99.90
21271;DHT22;10795;50.796;3.860;2022-10-04T07:01:01;8.80;99.90
21271;DHT22;10795;50.796;3.860;2022-10-04T07:03:31;9.00;99.90
21271;DHT22;10795;50.796;3.860;2022-10-04T07:05:59;9.50;99.90
21271;DHT22;10795;50.796;3.860;2022-10-04T07:11:01;10.30;99.90
21271;DHT22;10795;50.796;3.860;2022-10-04T07:18:33;10.10;99.90
21271;DHT22;10795;50.796;3.860;2022-10-04T07:21:02;10.70;99.90
21271;DHT22;10795;50.796;3.860;2022-10-04T07:23:52;11.00;99.90
21271;DHT22;10795;50.796;3.860;2022-10-04T07:28:50;11.30;99.90
21271;DHT22;10795;50.796;3.860;2022-10-04T07:31:37;11.50;99.90
21271;DHT22;10795;50.796;3.860;2022-10-04T07:34:13;12.20;99.90
21271;DHT22;10795;50.796;3.860;2022-10-04T07:39:09;12.30;99.90
21271;DHT22;10795;50.796;3.860;2022-10-04T07:49:22;12.80;99.90
21271;DHT22;10795;50.796;3.860;2022-10-04T07:56:59;13.10;99.90
21271;DHT22;10795;50.796;3.860;2022-10-04T07:59:31;13.20;99.90
21271;DHT22;10795;50.796;3.860;2022-10-04T08:02:07;13.40;99.90
21271;DHT22;10795;50.796;3.860;2022-10-04T08:07:17;13.80;99.90
21271;DHT22;10795;50.796;3.860;2022-10-04T08:09:52;13.70;99.90
21271;DHT22;10795;50.796;3.860;2022-10-04T08:12:20;14.00;99.90
21271;DHT22;10795;50.796;3.860;2022-10-04T08:17:37;13.70;99.90
21271;DHT22;10795;50.796;3.860;2022-10-04T08:28:04;14.30;99.90
21271;DHT22;10795;50.796;3.860;2022-10-04T08:30:58;14.60;99.90
21271;DHT22;10795;50.796;3.860;2022-10-04T08:33:46;14.20;99.90
21271;DHT22;10795;50.796;3.860;2022-10-04T08:39:01;15.10;99.90
21271;DHT22;10795;50.796;3.860;2022-10-04T08:49:18;14.90;99.90
21271;DHT22;10795;50.796;3.860;2022-10-04T08:57:18;14.70;99.90
21271;DHT22;10795;50.796;3.860;2022-10-04T09:23:05;16.40;99.90
21271;DHT22;10795;50.796;3.860;2022-10-04T09:28:26;15.50;99.90
21271;DHT22;10795;50.796;3.860;2022-10-04T09:36:18;16.90;99.90
21271;DHT22;10795;50.796;3.860;2022-10-04T09:49:54;16.70;99.90
21271;DHT22;10795;50.796;3.860;2022-10-04T09:55:12;17.30;99.90
21271;DHT22;10795;50.796;3.860;2022-10-04T10:00:22;17.20;99.90
21271;DHT22;10795;50.796;3.860;2022-10-04T10:03:03;17.10;99.90
21271;DHT22;10795;50.796;3.860;2022-10-04T10:05:36;17.10;99.90
21271;DHT22;10795;50.796;3.860;2022-10-04T10:13:55;17.10;99.90
21271;DHT22;10795;50.796;3.860;2022-10-04T10:50:27;19.60;99.90
21271;DHT22;10795;50.796;3.860;2022-10-04T11:27:18;20.50;99.90
21271;DHT22;10795;50.796;3.860;2022-10-04T11:30:06;20.10;99.90
21271;DHT22;10795;50.796;3.860;2022-10-04T11:40:29;20.80;99.90
21271;DHT22;10795;50.796;3.860;2022-10-04T11:43:04;21.30;99.90
21271;DHT22;10795;50.796;3.860;2022-10-04T11:58:27;21.40;99.90
21271;DHT22;10795;50.796;3.860;2022-10-04T12:32:18;21.60;99.90
21271;DHT22;10795;50.796;3.860;2022-10-04T12:35:06;21.30;99.90
21271;DHT22;10795;50.796;3.860;2022-10-04T12:37:36;21.70;99.90
21271;DHT22;10795;50.796;3.860;2022-10-04T12:45:15;21.70;99.90
21271;DHT22;10795;50.796;3.860;2022-10-04T12:56:00;21.50;99.90
21271;DHT22;10795;50.796;3.860;2022-10-04T13:01:26;21.60;99.90
21271;DHT22;10795;50.796;3.860;2022-10-04T13:04:13;21.90;99.90
21271;DHT22;10795;50.796;3.860;2022-10-04T13:06:52;21.90;99.90
21271;DHT22;10795;50.796;3.860;2022-10-04T13:20:04;21.30;99.90
21271;DHT22;10795;50.796;3.860;2022-10-04T13:25:42;21.40;99.90
21271;DHT22;10795;50.796;3.860;2022-10-04T13:28:14;21.50;99.90
21271;DHT22;10795;50.796;3.860;2022-10-04T13:46:48;21.20;99.90
21271;DHT22;10795;50.796;3.860;2022-10-04T13:51:48;21.50;99.90
21271;DHT22;10795;50.796;3.860;2022-10-04T13:54:42;21.20;99.90
21271;DHT22;10795;50.796;3.860;2022-10-04T14:00:02;21.30;99.90
21271;DHT22;10795;50.796;3.860;2022-10-04T14:20:45;20.90;99.90
21271;DHT22;10795;50.796;3.860;2022-10-04T14:26:01;20.30;99.90
21271;DHT22;10795;50.796;3.860;2022-10-04T14:28:48;20.60;99.90
21271;DHT22;10795;50.796;3.860;2022-10-04T14:31:22;20.40;99.90
21271;DHT22;10795;50.796;3.860;2022-10-04T14:41:53;20.90;99.90
21271;DHT22;10795;50.796;3.860;2022-10-04T14:46:56;20.40;99.90
21271;DHT22;10795;50.796;3.860;2022-10-04T14:57:35;20.00;99.90
21271;DHT22;10795;50.796;3.860;2022-10-04T15:00:02;19.80;99.90
21271;DHT22;10795;50.796;3.860;2022-10-04T15:07:43;19.80;99.90
21271;DHT22;10795;50.796;3.860;2022-10-04T15:20:35;19.70;99.90
21271;DHT22;10795;50.796;3.860;2022-10-04T15:25:44;19.60;99.90
21271;DHT22;10795;50.796;3.860;2022-10-04T15:39:01;19.00;99.90
21271;DHT22;10795;50.796;3.860;2022-10-04T15:41:33;19.00;99.90
21271;DHT22;10795;50.796;3.860;2022-10-04T15:49:32;18.70;99.90
21271;DHT22;10795;50.796;3.860;2022-10-04T15:57:16;18.80;99.90
21271;DHT22;10795;50.796;3.860;2022-10-04T16:07:19;18.60;99.90
21271;DHT22;10795;50.796;3.860;2022-10-04T16:25:35;17.80;99.90
21271;DHT22;10795;50.796;3.860;2022-10-04T16:28:06;18.00;99.90
21271;DHT22;10795;50.796;3.860;2022-10-04T16:30:45;18.10;99.90
21271;DHT22;10795;50.796;3.860;2022-10-04T16:41:56;18.40;99.90
21271;DHT22;10795;50.796;3.860;2022-10-04T16:44:28;17.90;99.90
21271;DHT22;10795;50.796;3.860;2022-10-04T16:46:55;18.00;99.90
21271;DHT22;10795;50.796;3.860;2022-10-04T16:49:24;18.00;99.90
21271;DHT22;10795;50.796;3.860;2022-10-04T17:02:16;18.10;99.90
21271;DHT22;10795;50.796;3.860;2022-10-04T17:04:53;18.00;99.90
21271;DHT22;10795;50.796;3.860;2022-10-04T17:07:32;18.00;99.90
21271;DHT22;10795;50.796;3.860;2022-10-04T17:12:52;17.80;99.90
21271;DHT22;10795;50.796;3.860;2022-10-04T17:15:24;17.60;99.90
21271;DHT22;10795;50.796;3.860;2022-10-04T17:17:57;17.40;99.90
21271;DHT22;10795;50.796;3.860;2022-10-04T17:25:40;17.20;99.90
21271;DHT22;10795;50.796;3.860;2022-10-04T17:33:41;17.20;99.90
21271;DHT22;10795;50.796;3.860;2022-10-04T17:49:47;16.80;99.90
21271;DHT22;10795;50.796;3.860;2022-10-04T17:52:43;16.80;99.90
21271;DHT22;10795;50.796;3.860;2022-10-04T17:55:33;16.90;99.90
21271;DHT22;10795;50.796;3.860;2022-10-04T17:58:19;16.80;99.90
21271;DHT22;10795;50.796;3.860;2022-10-04T18:01:50;17.00;99.90
21271;DHT22;10795;50.796;3.860;2022-10-04T18:03:50;17.10;99.90
21271;DHT22;10795;50.796;3.860;2022-10-04T18:06:29;17.00;99.90
21271;DHT22;10795;50.796;3.860;2022-10-04T18:09:04;17.00;99.90
21271;DHT22;10795;50.796;3.860;2022-10-04T18:11:45;17.20;99.90
21271;DHT22;10795;50.796;3.860;2022-10-04T18:16:56;16.80;99.90
21271;DHT22;10795;50.796;3.860;2022-10-04T18:19:43;16.70;99.90
21271;DHT22;10795;50.796;3.860;2022-10-04T18:22:18;16.90;99.90
21271;DHT22;10795;50.796;3.860;2022-10-04T18:24:45;16.90;99.90
21271;DHT22;10795;50.796;3.860;2022-10-04T18:27:29;16.80;99.90
21271;DHT22;10795;50.796;3.860;2022-10-04T18:30:14;16.80;99.90
21271;DHT22;10795;50.796;3.860;2022-10-04T18:32:50;16.80;99.90
21271;DHT22;10795;50.796;3.860;2022-10-04T18:35:28;16.60;99.90
21271;DHT22;10795;50.796;3.860;2022-10-04T18:40:33;16.80;99.90
21271;DHT22;10795;50.796;3.860;2022-10-04T18:42:58;16.80;99.90
21271;DHT22;10795;50.796;3.860;2022-10-04T18:45:31;16.70;99.90
21271;DHT22;10795;50.796;3.860;2022-10-04T18:47:58;16.60;99.90
21271;DHT22;10795;50.796;3.860;2022-10-04T18:50:31;16.50;99.90
21271;DHT22;10795;50.796;3.860;2022-10-04T18:53:13;16.60;99.90
21271;DHT22;10795;50.796;3.860;2022-10-04T18:56:00;16.40;99.90
21271;DHT22;10795;50.796;3.860;2022-10-04T19:04:16;16.20;99.90
21271;DHT22;10795;50.796;3.860;2022-10-04T19:06:45;16.20;99.90
21271;DHT22;10795;50.796;3.860;2022-10-04T19:09:25;16.30;99.90
21271;DHT22;10795;50.796;3.860;2022-10-04T19:11:59;16.40;99.90
21271;DHT22;10795;50.796;3.860;2022-10-04T19:19:49;16.20;99.90
21271;DHT22;10795;50.796;3.860;2022-10-04T19:27:41;16.50;99.90
21271;DHT22;10795;50.796;3.860;2022-10-04T19:32:41;16.20;99.90
21271;DHT22;10795;50.796;3.860;2022-10-04T19:38:05;16.50;99.90
21271;DHT22;10795;50.796;3.860;2022-10-04T19:43:18;16.40;99.90
21271;DHT22;10795;50.796;3.860;2022-10-04T19:48:35;16.40;99.90
21271;DHT22;10795;50.796;3.860;2022-10-04T19:51:46;16.30;99.90
21271;DHT22;10795;50.796;3.860;2022-10-04T19:53:53;16.00;99.90
21271;DHT22;10795;50.796;3.860;2022-10-04T19:56:23;15.80;99.90
21271;DHT22;10795;50.796;3.860;2022-10-04T19:58:51;15.80;99.90
21271;DHT22;10795;50.796;3.860;2022-10-04T20:01:22;15.80;99.90
21271;DHT22;10795;50.796;3.860;2022-10-04T20:03:49;15.80;99.90
21271;DHT22;10795;50.796;3.860;2022-10-04T20:06:35;15.70;99.90
21271;DHT22;10795;50.796;3.860;2022-10-04T20:11:47;15.80;99.90
21271;DHT22;10795;50.796;3.860;2022-10-04T20:19:16;16.20;99.90
21271;DHT22;10795;50.796;3.860;2022-10-04T20:21:42;16.30;99.90
21271;DHT22;10795;50.796;3.860;2022-10-04T20:24:47;16.10;99.90
21271;DHT22;10795;50.796;3.860;2022-10-04T20:27:00;15.90;99.90
21271;DHT22;10795;50.796;3.860;2022-10-04T20:29:55;16.00;99.90
21271;DHT22;10795;50.796;3.860;2022-10-04T20:34:52;15.80;99.90
21271;DHT22;10795;50.796;3.860;2022-10-04T20:37:18;15.70;99.90
21271;DHT22;10795;50.796;3.860;2022-10-04T20:42:10;15.70;99.90
21271;DHT22;10795;50.796;3.860;2022-10-04T20:49:52;15.60;99.90
21271;DHT22;10795;50.796;3.860;2022-10-04T20:52:18;15.70;99.90
21271;DHT22;10795;50.796;3.860;2022-10-04T20:54:49;15.70;99.90
21271;DHT22;10795;50.796;3.860;2022-10-04T20:57:17;15.90;99.90
21271;DHT22;10795;50.796;3.860;2022-10-04T20:59:43;16.00;99.90
21271;DHT22;10795;50.796;3.860;2022-10-04T21:02:12;16.00;99.90
21271;DHT22;10795;50.796;3.860;2022-10-04T21:04:39;16.10;99.90
21271;DHT22;10795;50.796;3.860;2022-10-04T21:09:43;16.20;99.90
21271;DHT22;10795;50.796;3.860;2022-10-04T21:19:53;15.40;99.90
21271;DHT22;10795;50.796;3.860;2022-10-04T21:29:50;15.60;99.90
21271;DHT22;10795;50.796;3.860;2022-10-04T21:32:18;15.60;99.90
21271;DHT22;10795;50.796;3.860;2022-10-04T21:34:44;15.50;99.90
21271;DHT22;10795;50.796;3.860;2022-10-04T21:37:09;15.50;99.90
21271;DHT22;10795;50.796;3.860;2022-10-04T21:39:35;15.50;99.90
21271;DHT22;10795;50.796;3.860;2022-10-04T21:42:00;15.40;99.90
21271;DHT22;10795;50.796;3.860;2022-10-04T21:44:26;15.40;99.90
21271;DHT22;10795;50.796;3.860;2022-10-04T21:46:52;15.40;99.90
21271;DHT22;10795;50.796;3.860;2022-10-04T21:49:17;15.40;99.90
21271;DHT22;10795;50.796;3.860;2022-10-04T21:51:43;15.40;99.90
21271;DHT22;10795;50.796;3.860;2022-10-04T21:54:08;15.50;99.90
21271;DHT22;10795;50.796;3.860;2022-10-04T21:56:34;15.50;99.90
21271;DHT22;10795;50.796;3.860;2022-10-04T21:59:00;15.40;99.90
21271;DHT22;10795;50.796;3.860;2022-10-04T22:01:25;15.40;99.90
21271;DHT22;10795;50.796;3.860;2022-10-04T22:03:51;15.50;99.90
21271;DHT22;10795;50.796;3.860;2022-10-04T22:06:17;15.50;99.90
21271;DHT22;10795;50.796;3.860;2022-10-04T22:08:42;15.40;99.90
21271;DHT22;10795;50.796;3.860;2022-10-04T22:11:08;15.40;99.90
21271;DHT22;10795;50.796;3.860;2022-10-04T22:13:34;15.40;99.90
21271;DHT22;10795;50.796;3.860;2022-10-04T22:16:00;15.40;99.90
21271;DHT22;10795;50.796;3.860;2022-10-04T22:18:29;15.30;99.90
21271;DHT22;10795;50.796;3.860;2022-10-04T22:20:55;15.60;99.90
21271;DHT22;10795;50.796;3.860;2022-10-04T22:23:24;15.50;99.90
21271;DHT22;10795;50.796;3.860;2022-10-04T22:25:51;15.50;99.90
21271;DHT22;10795;50.796;3.860;2022-10-04T22:30:42;15.90;99.90
21271;DHT22;10795;50.796;3.860;2022-10-04T22:33:16;15.80;99.90
21271;DHT22;10795;50.796;3.860;2022-10-04T22:35:47;15.70;99.90
21271;DHT22;10795;50.796;3.860;2022-10-04T22:38:13;15.70;99.90
21271;DHT22;10795;50.796;3.860;2022-10-04T22:40:38;15.80;99.90
21271;DHT22;10795;50.796;3.860;2022-10-04T22:43:04;15.80;99.90
21271;DHT22;10795;50.796;3.860;2022-10-04T22:45:35;15.70;99.90
21271;DHT22;10795;50.796;3.860;2022-10-04T22:48:05;15.80;99.90
21271;DHT22;10795;50.796;3.860;2022-10-04T22:50:34;15.70;99.90
21271;DHT22;10795;50.796;3.860;2022-10-04T22:53:09;15.70;99.90
21271;DHT22;10795;50.796;3.860;2022-10-04T22:55:35;15.50;99.90
21271;DHT22;10795;50.796;3.860;2022-10-04T22:58:01;15.60;99.90
21271;DHT22;10795;50.796;3.860;2022-10-04T23:00:27;15.70;99.90
21271;DHT22;10795;50.796;3.860;2022-10-04T23:02:53;15.80;99.90
21271;DHT22;10795;50.796;3.860;2022-10-04T23:05:19;15.80;99.90
21271;DHT22;10795;50.796;3.860;2022-10-04T23:07:45;15.70;99.90
21271;DHT22;10795;50.796;3.860;2022-10-04T23:10:12;15.80;99.90
21271;DHT22;10795;50.796;3.860;2022-10-04T23:12:37;15.70;99.90
21271;DHT22;10795;50.796;3.860;2022-10-04T23:15:04;15.50;99.90
21271;DHT22;10795;50.796;3.860;2022-10-04T23:17:34;15.70;99.90
21271;DHT22;10795;50.796;3.860;2022-10-04T23:20:11;15.70;99.90
21271;DHT22;10795;50.796;3.860;2022-10-04T23:22:37;15.70;99.90
21271;DHT22;10795;50.796;3.860;2022-10-04T23:25:26;15.70;99.90
21271;DHT22;10795;50.796;3.860;2022-10-04T23:27:49;15.70;99.90
21271;DHT22;10795;50.796;3.860;2022-10-04T23:30:16;15.70;99.90
21271;DHT22;10795;50.796;3.860;2022-10-04T23:32:43;15.50;99.90
21271;DHT22;10795;50.796;3.860;2022-10-04T23:35:19;15.50;99.90
21271;DHT22;10795;50.796;3.860;2022-10-04T23:37:46;15.50;99.90
21271;DHT22;10795;50.796;3.860;2022-10-04T23:40:14;15.50;99.90
21271;DHT22;10795;50.796;3.860;2022-10-04T23:42:40;15.50;99.90
21271;DHT22;10795;50.796;3.860;2022-10-04T23:45:14;15.40;99.90
21271;DHT22;10795;50.796;3.860;2022-10-04T23:47:41;15.50;99.90
21271;DHT22;10795;50.796;3.860;2022-10-04T23:50:15;15.60;99.90
21271;DHT22;10795;50.796;3.860;2022-10-04T23:52:41;15.40;99.90
21271;DHT22;10795;50.796;3.860;2022-10-04T23:55:21;15.40;99.90
21271;DHT22;10795;50.796;3.860;2022-10-04T23:57:47;15.40;99.90
